Time;durP1;ratioP1;P1;durP2;ratioP2;P2;SDS_P1;SDS_P2;PMS_P1;PMS_P2;Temp;Humidity;BMP_temperature;BMP_pressure;BME280_temperature;BME280_humidity;BME280_pressure;Samples;Min_cycle;Max_cycle;Signal;HPM_P1;HPM_P2
2020/12/18 00:00:06;;;;;;;0.30;0.30;;;;;;;6.55;90.83;100350.06;5087087;28;20448;-70
2020/12/18 00:02:32;;;;;;;0.40;0.40;;;;;;;6.58;90.86;100355.25;5086827;28;20070;-70
2020/12/18 00:04:58;;;;;;;0.28;0.28;;;;;;;6.57;90.74;100364.69;5086930;28;20024;-70
2020/12/18 00:07:23;;;;;;;0.30;0.30;;;;;;;6.58;90.90;100357.84;5086740;28;20024;-70
2020/12/18 00:09:48;;;;;;;0.30;0.30;;;;;;;6.56;90.64;100350.09;5086786;28;20096;-71
2020/12/18 00:12:14;;;;;;;0.30;0.30;;;;;;;6.55;90.73;100366.41;5086478;28;20028;-72
2020/12/18 00:14:39;;;;;;;0.30;0.30;;;;;;;6.54;90.79;100356.06;5086660;28;20035;-71
2020/12/18 00:17:05;;;;;;;0.30;0.30;;;;;;;6.53;90.92;100356.94;5086991;28;20427;-71
2020/12/18 00:19:31;;;;;;;0.30;0.30;;;;;;;6.55;90.77;100356.06;5087109;28;20043;-72
2020/12/18 00:21:57;;;;;;;0.30;0.30;;;;;;;6.57;90.76;100364.69;5086732;28;20033;-71
2020/12/18 00:24:23;;;;;;;0.30;0.30;;;;;;;6.57;90.80;100362.13;5086760;28;20557;-72
2020/12/18 00:26:48;;;;;;;0.30;0.30;;;;;;;6.56;90.71;100362.97;5086759;28;20084;-72
2020/12/18 00:29:14;;;;;;;0.30;0.30;;;;;;;6.55;90.85;100360.41;5086665;28;20021;-72
2020/12/18 00:31:39;;;;;;;0.30;0.30;;;;;;;6.58;90.68;100363.00;5086691;28;20027;-72
2020/12/18 00:34:05;;;;;;;0.30;0.30;;;;;;;6.58;90.89;100370.72;5086593;28;20040;-72
2020/12/18 00:36:30;;;;;;;0.30;0.30;;;;;;;6.61;90.95;100365.59;5084972;28;20028;-72
2020/12/18 00:38:56;;;;;;;0.30;0.30;;;;;;;6.60;90.69;100363.84;5086628;28;20369;-71
2020/12/18 00:41:21;;;;;;;0.30;0.30;;;;;;;6.60;90.76;100368.16;5086676;28;20080;-72
2020/12/18 00:43:46;;;;;;;0.30;0.30;;;;;;;6.57;90.64;100363.81;5086593;28;20042;-71
2020/12/18 00:46:12;;;;;;;0.30;0.30;;;;;;;6.51;90.80;100367.25;5086376;28;20026;-71
2020/12/18 00:48:37;;;;;;;0.30;0.30;;;;;;;6.52;90.78;100380.97;5086404;28;20021;-70
2020/12/18 00:51:03;;;;;;;0.30;0.30;;;;;;;6.54;90.77;100380.16;5086202;28;20027;-70
2020/12/18 00:53:29;;;;;;;0.30;0.30;;;;;;;6.50;90.87;100378.38;5086106;28;20034;-70
2020/12/18 00:55:55;;;;;;;0.30;0.30;;;;;;;6.54;90.70;100390.47;5085804;28;20036;-69
2020/12/18 00:58:20;;;;;;;0.30;0.30;;;;;;;6.53;90.77;100380.16;5085849;28;20020;-69
2020/12/18 01:00:46;;;;;;;0.30;0.30;;;;;;;6.55;90.72;100384.44;5086110;28;20087;-69
2020/12/18 01:03:11;;;;;;;0.30;0.30;;;;;;;6.54;90.76;100392.19;5085904;28;20047;-69
2020/12/18 01:05:37;;;;;;;0.30;0.30;;;;;;;6.53;90.86;100372.41;5085878;28;20084;-70
2020/12/18 01:08:02;;;;;;;0.30;0.30;;;;;;;6.52;90.65;100393.88;5085989;28;20021;-70
2020/12/18 01:10:28;;;;;;;0.30;0.30;;;;;;;6.48;90.70;100394.72;5086099;28;20353;-71
2020/12/18 01:12:53;;;;;;;0.30;0.30;;;;;;;6.52;90.80;100404.19;5085769;28;20028;-69
2020/12/18 01:15:18;;;;;;;0.30;0.30;;;;;;;6.49;90.85;100397.31;5086064;28;20506;-69
2020/12/18 01:17:44;;;;;;;0.30;0.30;;;;;;;6.50;90.66;100405.91;5085851;28;20044;-72
2020/12/18 01:20:09;;;;;;;0.30;0.30;;;;;;;6.53;90.79;100408.50;5084791;28;20066;-70
2020/12/18 01:22:35;;;;;;;0.30;0.30;;;;;;;6.54;90.67;100407.66;5085495;28;20344;-70
2020/12/18 01:25:00;;;;;;;0.25;0.25;;;;;;;6.51;90.88;100405.06;5085589;28;20024;-70
2020/12/18 01:27:26;;;;;;;0.30;0.30;;;;;;;6.55;90.78;100404.25;5085878;28;20035;-71
2020/12/18 01:29:51;;;;;;;0.30;0.30;;;;;;;6.56;90.72;100416.28;5085524;28;20025;-70
2020/12/18 01:32:16;;;;;;;0.25;0.25;;;;;;;6.57;90.73;100415.41;5085631;28;20368;-70
2020/12/18 01:34:44;;;;;;;0.30;0.30;;;;;;;6.59;90.89;100411.16;5085398;28;20050;-70
2020/12/18 01:37:13;;;;;;;0.32;0.32;;;;;;;6.57;90.62;100407.69;5085222;28;20021;-70
2020/12/18 01:39:39;;;;;;;0.20;0.20;;;;;;;6.57;90.77;100411.13;5085449;28;20036;-71
2020/12/18 01:42:05;;;;;;;0.32;0.32;;;;;;;6.59;90.64;100418.00;5085011;28;20021;-71
2020/12/18 01:44:30;;;;;;;0.40;0.40;;;;;;;6.61;90.65;100419.78;5085309;28;20135;-71
2020/12/18 01:46:56;;;;;;;0.30;0.30;;;;;;;6.61;90.85;100418.91;5085270;28;20259;-71
2020/12/18 01:49:21;;;;;;;0.30;0.30;;;;;;;6.56;90.67;100413.69;5085091;28;20088;-71
2020/12/18 01:51:48;;;;;;;0.40;0.40;;;;;;;6.61;90.77;100422.34;5084997;28;20103;-72
2020/12/18 01:54:16;;;;;;;0.30;0.30;;;;;;;6.54;90.67;100415.41;5084955;28;20484;-72
2020/12/18 01:56:41;;;;;;;0.30;0.30;;;;;;;6.62;90.67;100426.66;5083674;28;20073;-72
2020/12/18 01:59:07;;;;;;;0.32;0.32;;;;;;;6.65;90.88;100444.72;5083817;28;20079;-73
2020/12/18 02:01:32;;;;;;;0.30;0.30;;;;;;;6.63;90.70;100441.25;5084894;28;20028;-74
2020/12/18 02:03:58;;;;;;;0.30;0.30;;;;;;;6.43;90.63;100405.00;5083256;28;20063;-75
2020/12/18 02:06:26;;;;;;;0.30;0.30;;;;;;;6.53;90.69;100429.16;5083203;28;20112;-76
2020/12/18 02:08:51;;;;;;;0.25;0.25;;;;;;;6.63;90.68;100451.59;5084621;28;20035;-76
2020/12/18 02:11:20;;;;;;;0.30;0.30;;;;;;;6.58;90.63;100440.38;5084850;28;20013;-76
2020/12/18 02:13:52;;;;;;;0.30;0.30;;;;;;;6.64;90.70;100453.34;5083242;28;20020;-74
2020/12/18 02:16:18;;;;;;;0.30;0.30;;;;;;;6.65;90.77;100454.16;5084510;28;20103;-74
2020/12/18 02:18:44;;;;;;;0.30;0.30;;;;;;;6.65;90.65;100449.00;5084311;28;20080;-73
2020/12/18 02:21:10;;;;;;;0.20;0.20;;;;;;;6.60;90.69;100445.56;5083998;28;20020;-72
2020/12/18 02:23:39;;;;;;;0.30;0.30;;;;;;;6.65;90.61;100459.34;5084026;28;20046;-72
2020/12/18 02:26:08;;;;;;;0.30;0.30;;;;;;;6.63;90.71;100461.91;5084177;28;20020;-70
2020/12/18 02:28:36;;;;;;;0.30;0.30;;;;;;;6.61;90.59;100453.31;5083924;28;20020;-69
2020/12/18 02:31:01;;;;;;;0.30;0.30;;;;;;;6.63;90.70;100454.16;5083843;28;20020;-69
2020/12/18 02:33:26;;;;;;;0.30;0.30;;;;;;;6.69;90.83;100472.28;5083809;28;20055;-69
2020/12/18 02:35:52;;;;;;;0.30;0.30;;;;;;;6.63;90.82;100461.91;5083501;28;20084;-69
2020/12/18 02:38:17;;;;;;;0.30;0.30;;;;;;;6.65;90.77;100452.47;5083857;28;20070;-69
2020/12/18 02:40:42;;;;;;;0.30;0.30;;;;;;;6.70;90.67;100467.97;5083794;28;20107;-70
2020/12/18 02:43:08;;;;;;;0.30;0.30;;;;;;;6.68;90.47;100464.53;5083820;28;20029;-70
2020/12/18 02:45:33;;;;;;;0.30;0.30;;;;;;;6.67;90.67;100467.97;5083858;28;20017;-70
2020/12/18 02:47:59;;;;;;;0.30;0.30;;;;;;;6.66;90.49;100467.09;5083830;28;20091;-71
2020/12/18 02:50:25;;;;;;;0.30;0.30;;;;;;;6.66;90.49;100467.09;5083652;28;20051;-71
2020/12/18 02:52:50;;;;;;;0.30;0.30;;;;;;;6.66;90.93;100467.09;5083332;28;20020;-72
2020/12/18 02:55:15;;;;;;;0.20;0.20;;;;;;;6.67;90.65;100479.16;5083408;28;20028;-72
2020/12/18 02:57:41;;;;;;;0.30;0.30;;;;;;;6.69;90.60;100481.75;5083465;28;20036;-72
2020/12/18 03:00:06;;;;;;;0.30;0.30;;;;;;;6.68;90.55;100483.44;5083695;28;20021;-71
2020/12/18 03:02:32;;;;;;;0.30;0.30;;;;;;;6.68;90.67;100477.41;5083249;28;20080;-72
2020/12/18 03:04:57;;;;;;;0.30;0.30;;;;;;;6.69;90.70;100482.59;5082059;28;20036;-71
2020/12/18 03:07:22;;;;;;;0.30;0.30;;;;;;;6.71;90.53;100486.91;5083215;28;20017;-71
2020/12/18 03:09:48;;;;;;;0.30;0.30;;;;;;;6.70;90.64;100486.03;5083309;28;20024;-72
2020/12/18 03:12:13;;;;;;;0.30;0.30;;;;;;;6.67;90.49;100479.16;5083286;28;20020;-73
2020/12/18 03:14:38;;;;;;;0.30;0.30;;;;;;;6.67;90.58;100486.03;5083298;28;20016;-73
2020/12/18 03:17:04;;;;;;;0.30;0.30;;;;;;;6.68;90.69;100475.72;5097604;28;20387;-71
2020/12/18 03:19:30;;;;;;;0.30;0.30;;;;;;;6.69;90.50;100482.59;5102944;28;20016;-72
2020/12/18 03:21:55;;;;;;;0.32;0.32;;;;;;;6.69;90.59;100476.59;5103107;28;20043;-71
2020/12/18 03:24:21;;;;;;;0.30;0.30;;;;;;;6.69;90.60;100463.69;5103387;28;20020;-71
2020/12/18 03:26:46;;;;;;;0.30;0.30;;;;;;;6.64;90.44;100453.34;5103426;28;20020;-71
2020/12/18 03:29:12;;;;;;;0.30;0.30;;;;;;;6.68;90.55;100457.66;5103153;28;20050;-73
2020/12/18 03:31:37;;;;;;;0.30;0.30;;;;;;;6.67;90.52;100463.69;5103264;28;20084;-73
2020/12/18 03:34:02;;;;;;;0.38;0.38;;;;;;;6.66;90.58;100469.66;5103107;28;20054;-73
2020/12/18 03:36:28;;;;;;;0.30;0.30;;;;;;;6.65;90.43;100473.09;5102831;28;20055;-73
2020/12/18 03:38:53;;;;;;;0.30;0.30;;;;;;;6.62;90.39;100460.19;5101969;28;20018;-74
2020/12/18 03:41:19;;;;;;;0.30;0.30;;;;;;;6.64;90.50;100475.66;5103448;28;20031;-73
2020/12/18 03:43:44;;;;;;;0.40;0.40;;;;;;;6.63;90.46;100477.38;5103099;28;20031;-73
2020/12/18 03:46:14;;;;;;;0.30;0.30;;;;;;;6.62;90.29;100483.41;5102075;28;20024;-73
2020/12/18 03:48:40;;;;;;;0.20;0.20;;;;;;;6.62;90.54;100480.81;5103410;28;20013;-73
2020/12/18 03:51:05;;;;;;;0.30;0.30;;;;;;;6.60;90.30;100487.66;5103031;28;20503;-73
2020/12/18 03:53:30;;;;;;;0.30;0.30;;;;;;;6.60;90.32;100492.84;5103358;28;20050;-74
2020/12/18 03:55:56;;;;;;;0.30;0.30;;;;;;;6.58;90.25;100494.56;5103327;28;20555;-75
2020/12/18 03:58:21;;;;;;;0.30;0.30;;;;;;;6.57;90.55;100493.69;5103193;28;20070;-75
2020/12/18 04:00:46;;;;;;;0.30;0.30;;;;;;;6.58;90.36;100502.28;5103022;28;20035;-75
2020/12/18 04:03:12;;;;;;;0.30;0.30;;;;;;;6.57;90.37;100492.81;5102922;28;20096;-74
2020/12/18 04:05:38;;;;;;;0.30;0.30;;;;;;;6.48;90.18;100485.84;5103101;28;20512;-74
2020/12/18 04:08:06;;;;;;;0.30;0.30;;;;;;;6.51;90.44;100501.34;5102867;28;20031;-74
2020/12/18 04:10:32;;;;;;;0.30;0.30;;;;;;;6.49;90.48;100504.75;5103102;28;20077;-74
2020/12/18 04:12:57;;;;;;;0.30;0.30;;;;;;;6.48;90.25;100505.63;5102842;28;20024;-75
2020/12/18 04:15:22;;;;;;;0.30;0.30;;;;;;;6.49;90.56;100508.22;5102766;28;20039;-74
2020/12/18 04:17:48;;;;;;;0.30;0.30;;;;;;;6.48;90.46;100511.66;5103059;28;20024;-73
2020/12/18 04:20:13;;;;;;;0.30;0.30;;;;;;;6.51;90.53;100514.25;5101552;28;20428;-73
2020/12/18 04:22:38;;;;;;;0.30;0.30;;;;;;;6.52;90.61;100526.28;5101046;28;20106;-74
2020/12/18 04:25:05;;;;;;;0.30;0.30;;;;;;;6.48;90.38;100513.34;5102748;28;20041;-73
2020/12/18 04:27:30;;;;;;;0.30;0.30;;;;;;;6.43;90.42;100511.59;5102893;28;20084;-73
2020/12/18 04:29:55;;;;;;;0.30;0.30;;;;;;;6.52;90.27;100522.84;5102710;28;20048;-74
2020/12/18 04:32:21;;;;;;;0.20;0.20;;;;;;;6.52;90.63;100531.44;5104359;28;20049;-73
2020/12/18 04:34:46;;;;;;;0.30;0.30;;;;;;;6.51;90.39;100529.72;5106818;28;20016;-73
2020/12/18 04:37:11;;;;;;;0.30;0.30;;;;;;;6.52;90.50;100530.56;5106299;28;20070;-74
2020/12/18 04:39:37;;;;;;;0.30;0.30;;;;;;;6.46;90.62;100505.59;5106664;28;20012;-74
2020/12/18 04:42:02;;;;;;;0.30;0.30;;;;;;;6.53;90.51;100534.91;5106417;28;20024;-74
2020/12/18 04:44:28;;;;;;;0.30;0.30;;;;;;;6.52;90.40;100530.56;5106287;28;20024;-74
2020/12/18 04:46:56;;;;;;;0.30;0.30;;;;;;;6.52;90.54;100531.44;5106515;28;20031;-74
2020/12/18 04:49:22;;;;;;;0.30;0.30;;;;;;;6.54;90.48;100531.47;5104873;28;20416;-74
2020/12/18 04:51:51;;;;;;;0.30;0.30;;;;;;;6.52;90.27;100521.13;5105972;28;20020;-74
2020/12/18 04:54:20;;;;;;;0.30;0.30;;;;;;;6.55;90.32;100522.91;5106148;28;20028;-74
2020/12/18 04:56:50;;;;;;;0.30;0.30;;;;;;;6.53;90.58;100524.59;5106301;28;20027;-74
2020/12/18 04:59:21;;;;;;;0.30;0.30;;;;;;;6.54;90.57;100522.03;5106061;28;20049;-74
2020/12/18 05:01:47;;;;;;;0.22;0.22;;;;;;;6.57;90.47;100536.66;5106279;28;20024;-74
2020/12/18 05:04:15;;;;;;;0.40;0.40;;;;;;;6.57;90.64;100534.06;5105871;28;20063;-74
2020/12/18 05:06:40;;;;;;;0.30;0.30;;;;;;;6.58;90.54;100535.81;5104482;28;20028;-75
2020/12/18 05:09:05;;;;;;;0.30;0.30;;;;;;;6.60;90.66;100528.94;5106145;28;20031;-74
2020/12/18 05:11:31;;;;;;;0.20;0.20;;;;;;;6.61;90.65;100530.69;5105999;28;20031;-73
2020/12/18 05:13:56;;;;;;;0.30;0.30;;;;;;;6.63;90.53;100539.28;5105864;28;20598;-74
2020/12/18 05:16:23;;;;;;;0.30;0.30;;;;;;;6.64;90.33;100524.69;5106068;28;20114;-76
2020/12/18 05:18:50;;;;;;;0.30;0.30;;;;;;;6.65;90.35;100532.44;5106375;28;20027;-75
2020/12/18 05:21:16;;;;;;;0.30;0.30;;;;;;;6.66;90.34;100523.84;5115139;28;20031;-73
2020/12/18 05:23:44;;;;;;;0.30;0.30;;;;;;;6.65;90.51;100529.00;5116123;28;20047;-70
2020/12/18 05:26:11;;;;;;;0.30;0.30;;;;;;;6.66;90.35;100528.16;5116474;28;20473;-69
2020/12/18 05:28:47;;;;;;;0.30;0.30;;;;;;;6.65;90.50;100532.44;5110355;28;20028;-69
2020/12/18 05:31:18;;;;;;;0.20;0.20;;;;;;;6.63;90.27;100516.06;5105938;28;20077;-71
2020/12/18 05:33:46;;;;;;;0.40;0.40;;;;;;;6.68;90.28;100535.06;5105801;28;20028;-69
2020/12/18 05:36:12;;;;;;;0.30;0.30;;;;;;;6.68;90.61;100529.91;5105486;28;20024;-73
2020/12/18 05:38:38;;;;;;;0.30;0.30;;;;;;;6.65;90.49;100534.16;5105587;28;20026;-71
2020/12/18 05:41:06;;;;;;;0.30;0.30;;;;;;;6.69;90.47;100544.50;5105535;28;20016;-72
2020/12/18 05:43:39;;;;;;;0.28;0.28;;;;;;;6.69;90.33;100541.09;5102719;28;20036;-72
2020/12/18 05:46:18;;;;;;;0.30;0.30;;;;;;;6.70;90.36;100529.91;5105446;28;20103;-73
2020/12/18 05:48:45;;;;;;;0.30;0.30;;;;;;;6.59;90.48;100522.06;5105310;28;20076;-72
2020/12/18 05:51:25;;;;;;;0.30;0.30;;;;;;;6.68;90.47;100535.06;5105162;28;20031;-71
2020/12/18 05:54:06;;;;;;;0.30;0.30;;;;;;;6.70;90.41;100540.22;5105257;28;20098;-72
2020/12/18 05:56:33;;;;;;;0.30;0.30;;;;;;;6.69;90.30;100533.34;5105324;28;20380;-72
2020/12/18 05:59:04;;;;;;;0.30;0.30;;;;;;;6.73;90.32;100547.13;5105081;28;20016;-73
2020/12/18 06:01:30;;;;;;;0.20;0.20;;;;;;;6.72;90.35;100532.50;5103704;28;20020;-71
2020/12/18 06:04:02;;;;;;;0.30;0.30;;;;;;;6.74;90.27;100549.72;5104795;28;20123;-73
2020/12/18 06:06:30;;;;;;;0.30;0.30;;;;;;;6.77;90.44;100543.75;5103325;28;20387;-73
2020/12/18 06:08:56;;;;;;;0.30;0.30;;;;;;;6.73;90.54;100534.22;5105002;28;20043;-74
2020/12/18 06:11:24;;;;;;;0.30;0.30;;;;;;;6.79;90.36;100545.47;5104846;28;20028;-75
2020/12/18 06:13:50;;;;;;;0.30;0.30;;;;;;;6.80;90.50;100547.22;5104768;28;20042;-75
2020/12/18 06:16:16;;;;;;;0.30;0.30;;;;;;;6.75;90.19;100542.84;5104950;28;20023;-73
2020/12/18 06:18:44;;;;;;;0.30;0.30;;;;;;;6.81;90.33;100550.66;5104778;28;20023;-73
2020/12/18 06:21:12;;;;;;;0.30;0.30;;;;;;;6.81;90.42;100554.09;5103412;28;20040;-72
2020/12/18 06:23:39;;;;;;;0.30;0.30;;;;;;;6.82;90.25;100554.97;5103168;28;20020;-73
2020/12/18 06:26:05;;;;;;;0.30;0.30;;;;;;;6.81;90.39;100548.06;5104445;28;20019;-73
2020/12/18 06:28:31;;;;;;;0.30;0.30;;;;;;;6.83;90.13;100556.69;5104283;28;20054;-73
2020/12/18 06:31:21;;;;;;;0.32;0.32;;;;;;;6.78;90.11;100548.91;5104599;28;20054;-73
2020/12/18 06:33:55;;;;;;;0.30;0.30;;;;;;;6.79;90.21;100554.91;5104345;28;20024;-73
2020/12/18 06:36:45;;;;;;;0.20;0.20;;;;;;;6.81;90.25;100563.56;5104097;28;20445;-74
2020/12/18 06:39:24;;;;;;;0.30;0.30;;;;;;;6.79;90.46;100560.97;5104399;28;20047;-75
2020/12/18 06:42:11;;;;;;;0.30;0.30;;;;;;;6.79;90.25;100562.66;5104256;28;20028;-74
2020/12/18 06:44:51;;;;;;;0.30;0.30;;;;;;;6.78;90.29;100566.97;5103974;28;20020;-73
2020/12/18 06:47:28;;;;;;;0.47;0.47;;;;;;;6.77;90.13;100569.53;5102824;28;20027;-73
2020/12/18 06:50:33;;;;;;;0.22;0.22;;;;;;;6.77;90.46;100570.38;5104083;28;20021;-73
2020/12/18 06:53:04;;;;;;;0.30;0.30;;;;;;;6.75;90.28;100563.50;5072074;28;20143;-72
2020/12/18 06:55:30;;;;;;;0.40;0.40;;;;;;;6.76;90.35;100566.09;5103124;28;20124;-70
2020/12/18 06:58:17;;;;;;;0.30;0.30;;;;;;;6.77;90.49;100564.38;5103911;28;20024;-73
2020/12/18 07:00:52;;;;;;;0.30;0.30;;;;;;;6.76;90.19;100560.94;5102593;28;20020;-74
2020/12/18 07:03:36;;;;;;;0.30;0.30;;;;;;;6.76;90.28;100555.78;5103855;28;20094;-74
2020/12/18 07:06:04;;;;;;;0.20;0.20;;;;;;;6.77;90.30;100567.81;5102163;28;20376;-73
2020/12/18 07:08:32;;;;;;;0.30;0.30;;;;;;;6.75;90.55;100566.94;5103907;28;20031;-74
2020/12/18 07:11:12;;;;;;;0.30;0.30;;;;;;;6.76;90.29;100560.06;5103820;28;20020;-75
2020/12/18 07:13:46;;;;;;;0.30;0.30;;;;;;;6.76;90.19;100562.63;5103886;28;20307;-74
2020/12/18 07:16:12;;;;;;;0.30;0.30;;;;;;;6.75;90.15;100553.16;5103715;28;20055;-75
2020/12/18 07:18:39;;;;;;;0.30;0.30;;;;;;;6.76;90.23;100553.19;5103740;28;20027;-75
2020/12/18 07:21:07;;;;;;;0.30;0.30;;;;;;;6.65;89.95;100542.75;5103308;28;20128;-73
2020/12/18 07:23:35;;;;;;;0.30;0.30;;;;;;;6.72;90.21;100554.03;5103391;28;20043;-73
2020/12/18 07:26:03;;;;;;;0.30;0.30;;;;;;;6.72;90.31;100555.72;5103636;28;20054;-74
2020/12/18 07:28:30;;;;;;;0.30;0.30;;;;;;;6.69;90.09;100554.84;5102305;28;20042;-75
2020/12/18 07:30:57;;;;;;;0.20;0.20;;;;;;;6.68;90.11;100559.97;5103596;28;20028;-74
2020/12/18 07:33:24;;;;;;;0.30;0.30;;;;;;;6.65;90.22;100559.94;5103335;28;20059;-76
2020/12/18 07:35:55;;;;;;;0.30;0.30;;;;;;;6.66;90.12;100570.28;5103110;28;20023;-74
2020/12/18 07:38:29;;;;;;;0.30;0.30;;;;;;;6.66;90.12;100570.28;5103126;28;20020;-75
2020/12/18 07:40:58;;;;;;;0.25;0.25;;;;;;;6.65;90.16;100565.97;5103385;28;20023;-75
2020/12/18 07:43:32;;;;;;;0.30;0.30;;;;;;;6.64;90.07;100565.97;5103435;28;20031;-75
2020/12/18 07:45:59;;;;;;;0.30;0.30;;;;;;;6.60;90.11;100559.91;5103484;28;20024;-75
2020/12/18 07:48:29;;;;;;;0.30;0.30;;;;;;;6.65;90.13;100570.28;5103236;28;20088;-76
2020/12/18 07:50:59;;;;;;;0.30;0.30;;;;;;;6.62;90.31;100558.22;5103142;28;20081;-74
2020/12/18 07:53:29;;;;;;;0.30;0.30;;;;;;;6.65;90.45;100563.41;5103413;28;20088;-75
2020/12/18 07:55:58;;;;;;;0.30;0.30;;;;;;;6.67;90.45;100569.47;5103531;28;20067;-75
2020/12/18 07:58:23;;;;;;;0.30;0.30;;;;;;;6.69;90.45;100566.88;5103332;28;20024;-75
2020/12/18 08:00:49;;;;;;;0.30;0.30;;;;;;;6.70;90.18;100558.28;5103373;28;20016;-75
2020/12/18 08:03:14;;;;;;;0.30;0.30;;;;;;;6.69;90.22;100570.31;5103120;28;20047;-75
2020/12/18 08:05:43;;;;;;;0.30;0.30;;;;;;;6.71;90.34;100564.31;5103945;28;20050;-75
2020/12/18 08:08:10;;;;;;;0.30;0.30;;;;;;;6.71;90.23;100570.31;5105805;28;20042;-74
2020/12/18 08:10:40;;;;;;;0.30;0.30;;;;;;;6.70;90.31;100573.78;5107588;28;20031;-74
2020/12/18 08:13:06;;;;;;;0.30;0.30;;;;;;;6.72;90.30;100572.09;5106062;28;20133;-74
2020/12/18 08:15:31;;;;;;;0.30;0.30;;;;;;;6.72;90.33;100576.38;5107333;28;20418;-74
2020/12/18 08:17:59;;;;;;;0.30;0.30;;;;;;;6.71;90.24;100574.66;5107276;28;20057;-73
2020/12/18 08:20:25;;;;;;;0.30;0.30;;;;;;;6.71;90.09;100587.53;5107170;28;20032;-74
2020/12/18 08:22:50;;;;;;;0.20;0.20;;;;;;;6.71;90.13;100584.97;5106891;28;20024;-74
2020/12/18 08:25:18;;;;;;;0.30;0.30;;;;;;;6.67;90.29;100587.50;5107317;28;20096;-72
2020/12/18 08:27:53;;;;;;;0.20;0.20;;;;;;;6.64;90.30;100584.03;5107127;28;20012;-73
2020/12/18 08:30:25;;;;;;;0.30;0.30;;;;;;;6.69;90.34;100585.78;5105550;28;20099;-72
2020/12/18 08:32:54;;;;;;;0.30;0.30;;;;;;;6.71;90.12;100595.28;5107208;28;20103;-72
2020/12/18 08:35:21;;;;;;;0.30;0.30;;;;;;;6.72;90.19;100595.31;5106864;28;20112;-73
2020/12/18 08:37:48;;;;;;;0.30;0.30;;;;;;;6.73;90.28;100599.59;5106574;28;20111;-72
2020/12/18 08:40:26;;;;;;;0.30;0.30;;;;;;;6.68;90.41;100589.25;5106948;28;20035;-72
2020/12/18 08:43:01;;;;;;;0.30;0.30;;;;;;;6.71;90.19;100593.56;5107006;28;20020;-72
2020/12/18 08:45:27;;;;;;;0.30;0.30;;;;;;;6.73;90.39;100593.56;5106592;28;20085;-72
2020/12/18 08:47:55;;;;;;;0.30;0.30;;;;;;;6.73;90.22;100597.03;5106917;28;20024;-72
2020/12/18 08:50:21;;;;;;;0.30;0.30;;;;;;;6.71;90.41;100601.28;5106699;28;20028;-71
2020/12/18 08:52:47;;;;;;;0.30;0.30;;;;;;;6.78;90.27;100604.81;5106385;28;20027;-72
2020/12/18 08:55:13;;;;;;;0.40;0.40;;;;;;;6.78;90.27;100605.69;5106378;28;20032;-73
2020/12/18 08:57:40;;;;;;;0.30;0.30;;;;;;;6.78;90.26;100605.69;5106600;28;20103;-71
2020/12/18 09:00:21;;;;;;;0.30;0.30;;;;;;;6.79;90.51;100601.38;5106550;28;20076;-71
2020/12/18 09:02:50;;;;;;;0.30;0.30;;;;;;;6.80;90.44;100592.81;5106300;28;20119;-71
2020/12/18 09:05:18;;;;;;;0.30;0.30;;;;;;;6.80;90.24;100597.97;5106190;28;20535;-69
2020/12/18 09:07:47;;;;;;;0.30;0.30;;;;;;;6.80;90.27;100603.13;5104691;28;20044;-70
2020/12/18 09:10:12;;;;;;;0.28;0.28;;;;;;;6.77;90.30;100590.19;5106195;28;20030;-70
2020/12/18 09:12:39;;;;;;;0.30;0.30;;;;;;;6.76;90.39;100599.63;5106252;28;20032;-70
2020/12/18 09:15:29;;;;;;;0.30;0.30;;;;;;;6.72;90.36;100595.31;5105961;28;20020;-72
2020/12/18 09:18:14;;;;;;;0.30;0.30;;;;;;;6.72;90.34;100597.00;5105443;28;20048;-72
2020/12/18 09:20:43;;;;;;;0.30;0.30;;;;;;;6.70;90.13;100591.84;5106049;28;20113;-72
2020/12/18 09:23:11;;;;;;;0.30;0.30;;;;;;;6.64;90.23;100582.31;5105886;28;20478;-71
2020/12/18 09:25:42;;;;;;;0.30;0.30;;;;;;;6.62;90.26;100578.84;5104683;28;20046;-70
2020/12/18 09:28:13;;;;;;;0.30;0.30;;;;;;;6.62;90.53;100588.28;5105830;28;20027;-69
2020/12/18 09:30:39;;;;;;;0.40;0.40;;;;;;;6.57;90.61;100585.66;5104634;28;20028;-70
2020/12/18 09:33:09;;;;;;;0.30;0.30;;;;;;;6.58;90.43;100590.00;5105936;28;20016;-70
2020/12/18 09:35:34;;;;;;;0.30;0.30;;;;;;;6.54;90.52;100585.63;5104514;28;20016;-72
2020/12/18 09:38:00;;;;;;;0.30;0.30;;;;;;;6.55;90.48;100592.53;5105594;28;20016;-71
2020/12/18 09:40:25;;;;;;;0.32;0.32;;;;;;;6.56;90.66;100596.84;5105765;28;20111;-71
2020/12/18 09:42:50;;;;;;;0.30;0.30;;;;;;;6.56;90.66;100583.94;5105697;28;20495;-72
2020/12/18 09:45:16;;;;;;;0.30;0.30;;;;;;;6.54;90.86;100590.78;5105616;28;20084;-72
2020/12/18 09:47:41;;;;;;;0.30;0.30;;;;;;;6.50;90.69;100586.47;5105549;28;20020;-73
2020/12/18 09:50:06;;;;;;;0.30;0.30;;;;;;;6.55;91.01;100602.88;5105427;28;20020;-74
2020/12/18 09:52:32;;;;;;;0.30;0.30;;;;;;;6.56;90.99;100594.28;5105161;28;20062;-74
2020/12/18 09:54:57;;;;;;;0.30;0.30;;;;;;;6.56;90.97;100597.72;5105370;28;20020;-74
2020/12/18 09:57:22;;;;;;;0.20;0.20;;;;;;;6.56;90.47;100594.28;5105384;28;20020;-74
2020/12/18 09:59:48;;;;;;;0.30;0.30;;;;;;;6.55;90.99;100589.97;5105285;28;20017;-75
2020/12/18 10:02:13;;;;;;;0.30;0.30;;;;;;;6.53;90.96;100592.50;5105201;28;20051;-75
2020/12/18 10:04:38;;;;;;;0.30;0.30;;;;;;;6.54;90.92;100596.84;5105104;28;20024;-77
2020/12/18 10:07:04;;;;;;;0.30;0.30;;;;;;;6.53;90.79;100602.81;5105091;28;20048;-75
2020/12/18 10:09:29;;;;;;;0.30;0.30;;;;;;;6.51;90.89;100596.78;5104961;28;20031;-75
2020/12/18 10:11:55;;;;;;;0.30;0.30;;;;;;;6.47;90.87;100589.84;5105098;28;20072;-75
2020/12/18 10:14:20;;;;;;;0.25;0.25;;;;;;;6.48;91.00;100590.72;5104930;28;20119;-74
2020/12/18 10:16:45;;;;;;;0.30;0.30;;;;;;;6.50;90.99;100595.03;5104750;28;20051;-75
2020/12/18 10:19:11;;;;;;;0.30;0.30;;;;;;;6.48;91.07;100585.56;5104719;28;20039;-74
2020/12/18 10:21:36;;;;;;;0.30;0.30;;;;;;;6.50;91.07;100599.34;5104339;28;20051;-73
2020/12/18 10:24:01;;;;;;;0.30;0.30;;;;;;;6.48;91.02;100604.50;5104636;28;20334;-73
2020/12/18 10:26:27;;;;;;;0.30;0.30;;;;;;;6.49;91.05;100590.75;5104664;28;20077;-74
2020/12/18 10:28:52;;;;;;;0.20;0.20;;;;;;;6.51;91.24;100593.34;5104578;28;20028;-74
2020/12/18 10:31:18;;;;;;;0.30;0.30;;;;;;;6.53;90.94;100599.41;5104438;28;20024;-75
2020/12/18 10:33:43;;;;;;;0.30;0.30;;;;;;;6.50;91.24;100599.34;5103015;28;20032;-74
2020/12/18 10:36:08;;;;;;;0.30;0.30;;;;;;;6.50;91.24;100596.78;5104262;28;20043;-75
2020/12/18 10:38:36;;;;;;;0.30;0.30;;;;;;;6.54;91.27;100595.94;5104870;28;20024;-75
2020/12/18 10:41:02;;;;;;;0.30;0.30;;;;;;;6.56;91.19;100602.00;5104270;28;20038;-76
2020/12/18 10:43:27;;;;;;;0.30;0.30;;;;;;;6.56;91.33;100592.56;5104389;28;20024;-77
2020/12/18 10:45:52;;;;;;;0.30;0.30;;;;;;;6.58;91.03;100587.41;5104061;28;20020;-75
2020/12/18 10:48:18;;;;;;;0.30;0.30;;;;;;;6.52;91.23;100582.16;5102840;28;20028;-78
2020/12/18 10:50:43;;;;;;;0.30;0.30;;;;;;;6.61;91.09;100599.47;5104118;28;20015;-77
2020/12/18 10:53:09;;;;;;;0.40;0.40;;;;;;;6.64;91.14;100594.34;5103880;28;20020;-76
2020/12/18 10:55:35;;;;;;;0.30;0.30;;;;;;;6.58;91.23;100592.56;5104021;28;20020;-75
2020/12/18 10:58:00;;;;;;;0.30;0.30;;;;;;;6.65;91.31;100603.81;5103947;28;20047;-77
2020/12/18 11:00:26;;;;;;;0.30;0.30;;;;;;;6.61;91.14;100597.78;5104020;28;20371;-76
2020/12/18 11:02:51;;;;;;;0.30;0.30;;;;;;;6.66;91.10;100605.56;5103763;28;20055;-76
2020/12/18 11:05:16;;;;;;;0.30;0.30;;;;;;;6.68;91.25;100609.88;5103934;28;20418;-77
2020/12/18 11:07:42;;;;;;;0.22;0.22;;;;;;;6.65;91.12;100599.53;5103552;28;20016;-75
2020/12/18 11:10:07;;;;;;;0.30;0.30;;;;;;;6.66;91.20;100590.94;5103985;28;20024;-74
2020/12/18 11:12:32;;;;;;;0.32;0.32;;;;;;;6.72;91.13;100599.59;5104078;28;20031;-73
2020/12/18 11:14:58;;;;;;;0.30;0.30;;;;;;;6.67;91.06;100595.25;5103940;28;20028;-73
2020/12/18 11:17:23;;;;;;;0.30;0.30;;;;;;;6.76;91.10;100615.13;5103843;28;20024;-72
2020/12/18 11:19:48;;;;;;;0.30;0.30;;;;;;;6.73;91.36;100611.63;5103571;28;20016;-73
2020/12/18 11:22:15;;;;;;;0.28;0.28;;;;;;;6.77;91.22;100608.25;5103444;28;20036;-72
2020/12/18 11:24:42;;;;;;;0.20;0.20;;;;;;;6.72;90.97;100597.00;5103720;28;20038;-72
2020/12/18 11:27:07;;;;;;;0.30;0.30;;;;;;;6.78;91.22;100615.13;5103583;28;20034;-72
2020/12/18 11:29:33;;;;;;;0.30;0.30;;;;;;;6.75;91.19;100594.47;5103535;28;20020;-72
2020/12/18 11:31:58;;;;;;;0.30;0.30;;;;;;;6.82;91.08;100614.34;5103510;28;20024;-72
2020/12/18 11:34:23;;;;;;;0.30;0.30;;;;;;;6.76;90.92;100607.38;5103493;28;20028;-74